Budapest Bridge — VRIZ5 — position and weather

sailwx.info

Track history (hours):
 
Tides and Currents Weather Stations Pressure Air Temp Water Temp Dewpoint Dewpoint Depression Visibility Wind Speed Wind Dir Waves Ship Positions

Budapest Bridge

Last reported at 2016-Jun-27 17:33 UTC. Time now 2016-Jun-29 16:36 UTC.
Position N 34°60' E 139°35'.

Length 268 m; draft 10.5 m.

Type: Cargo ship. MMSI: 477434200.

Date/timePositionNaut miles runAvg speedWind from/ knotsBaromVisibWave heightAir tempDewpointWater temp
2016-Jun-27 17:33N 34°60' E 139°35'1515.0
2016-Jun-27 16:33N 35°12' E 139°46'1212.2
2016-Jun-27 15:33N 35°23' E 139°42'6 6.0
2016-Jun-27 14:31N 35°29' E 139°45'0 0.0
2016-Jun-27 13:31N 35°29' E 139°45'0 0.0
2016-Jun-27 12:31N 35°29' E 139°45'0 0.0
2016-Jun-27 11:31N 35°29' E 139°45'0 0.0
2016-Jun-27 10:31N 35°29' E 139°45'2 1.8
2016-Jun-27 09:33N 35°28' E 139°45'4 3.8
2016-Jun-27 08:33N 35°27' E 139°40'0 0.0
2016-Jun-27 07:33N 35°27' E 139°40'0 0.0
2016-Jun-27 06:33N 35°27' E 139°40'0 0.0
2016-Jun-27 05:33N 35°27' E 139°40'0 0.0
2016-Jun-27 04:33N 35°27' E 139°40'0 0.0
2016-Jun-27 03:33N 35°27' E 139°40'0 0.0
2016-Jun-27 02:33N 35°27' E 139°40'0 0.0
2016-Jun-27 01:33N 35°27' E 139°40'0 0.0
2016-Jun-27 00:33N 35°27' E 139°40'0 0.0
2016-Jun-26 23:33N 35°27' E 139°40'0 0.0
2016-Jun-26 22:33N 35°27' E 139°40'3 2.8
2016-Jun-26 21:33N 35°26' E 139°44'9 9.5
2016-Jun-26 20:34N 35°35' E 139°48'2 2.1
2016-Jun-26 19:33N 35°37' E 139°46'0 0.0
2016-Jun-26 18:33N 35°37' E 139°46'0 0.0
2016-Jun-26 17:33N 35°37' E 139°46'0 0.0
2016-Jun-26 16:33N 35°37' E 139°46'0 0.0
2016-Jun-26 15:33N 35°37' E 139°46'0 0.0
2016-Jun-26 14:33N 35°37' E 139°46'0 0.0
2016-Jun-26 13:33N 35°37' E 139°46'0 0.0
2016-Jun-26 12:33N 35°37' E 139°46'0 0.0
2016-Jun-26 11:33N 35°37' E 139°46'0 0.0
2016-Jun-26 10:30N 35°37' E 139°46'0 0.0
2016-Jun-26 09:33N 35°37' E 139°46'0 0.0
2016-Jun-26 08:33N 35°37' E 139°46'0 0.0
2016-Jun-26 07:33N 35°37' E 139°46'0 0.0
2016-Jun-26 06:33N 35°37' E 139°46'0 0.0
2016-Jun-26 05:33N 35°37' E 139°46'0 0.0
2016-Jun-26 04:33N 35°37' E 139°46'0 0.0
2016-Jun-26 03:33N 35°37' E 139°46'0 0.0
2016-Jun-26 02:33N 35°37' E 139°46'0 0.0
2016-Jun-26 01:33N 35°37' E 139°46'0 0.0
2016-Jun-26 00:33N 35°37' E 139°46'2 2.5
2016-Jun-25 23:34N 35°35' E 139°48'1111.0
2016-Jun-25 22:33N 35°24' E 139°46'1211.6
2016-Jun-25 21:33N 35°12' E 139°47'1010.2
2016-Jun-25 20:33N 35°02' E 139°44'1313.1
2016-Jun-25 19:33N 34°50' E 139°50'1717.3
2016-Jun-25 18:33N 34°45' E 140°10'1 1.2
2016-Jun-25 17:28N 34°44' E 140°10'2 2.6
2016-Jun-25 16:33N 34°44' E 140°08'3 2.7
2016-Jun-25 15:33N 34°43' E 140°04'2 2.4
2016-Jun-25 14:32N 34°42' E 140°02'2 2.4
2016-Jun-25 13:33N 34°41' E 139°59'2 2.2
2016-Jun-25 12:34N 34°41' E 139°56'2 2.3
2016-Jun-25 11:33N 34°40' E 139°54'2 2.2
2016-Jun-25 10:33N 34°40' E 139°51'2 1.9
2016-Jun-25 09:31N 34°39' E 139°49'2 2.0
2016-Jun-25 08:34N 34°39' E 139°46'3 1.4
2016-Jun-25 06:34N 34°41' E 139°44'3 2.5
2016-Jun-25 05:28N 34°42' E 139°41'2 2.5
2016-Jun-25 04:30N 34°44' E 139°38'1515.9
2016-Jun-25 03:34N 34°53' E 139°25'  
Track history (hours):
 
Tides and Currents Weather Stations Pressure Air Temp Water Temp Dewpoint Dewpoint Depression Visibility Wind Speed Wind Dir Waves Ship Positions

Budapest Bridge

Last reported at 2016-Jun-27 17:33 UTC. Time now 2016-Jun-29 16:36 UTC.
Position N 34°60' E 139°35'.

Length 268 m; draft 10.5 m.

Type: Cargo ship. MMSI: 477434200.

Date/timePositionNaut miles runAvg speedWind from/ knotsBaromVisibWave heightAir tempDewpointWater temp
2016-Jun-27 17:33N 34°60' E 139°35'1515.0
2016-Jun-27 16:33N 35°12' E 139°46'1212.2
2016-Jun-27 15:33N 35°23' E 139°42'6 6.0
2016-Jun-27 14:31N 35°29' E 139°45'0 0.0
2016-Jun-27 13:31N 35°29' E 139°45'0 0.0
2016-Jun-27 12:31N 35°29' E 139°45'0 0.0
2016-Jun-27 11:31N 35°29' E 139°45'0 0.0
2016-Jun-27 10:31N 35°29' E 139°45'2 1.8
2016-Jun-27 09:33N 35°28' E 139°45'4 3.8
2016-Jun-27 08:33N 35°27' E 139°40'0 0.0
2016-Jun-27 07:33N 35°27' E 139°40'0 0.0
2016-Jun-27 06:33N 35°27' E 139°40'0 0.0
2016-Jun-27 05:33N 35°27' E 139°40'0 0.0
2016-Jun-27 04:33N 35°27' E 139°40'0 0.0
2016-Jun-27 03:33N 35°27' E 139°40'0 0.0
2016-Jun-27 02:33N 35°27' E 139°40'0 0.0
2016-Jun-27 01:33N 35°27' E 139°40'0 0.0
2016-Jun-27 00:33N 35°27' E 139°40'0 0.0
2016-Jun-26 23:33N 35°27' E 139°40'0 0.0
2016-Jun-26 22:33N 35°27' E 139°40'3 2.8
2016-Jun-26 21:33N 35°26' E 139°44'9 9.5
2016-Jun-26 20:34N 35°35' E 139°48'2 2.1
2016-Jun-26 19:33N 35°37' E 139°46'0 0.0
2016-Jun-26 18:33N 35°37' E 139°46'0 0.0
2016-Jun-26 17:33N 35°37' E 139°46'0 0.0
2016-Jun-26 16:33N 35°37' E 139°46'0 0.0
2016-Jun-26 15:33N 35°37' E 139°46'0 0.0
2016-Jun-26 14:33N 35°37' E 139°46'0 0.0
2016-Jun-26 13:33N 35°37' E 139°46'0 0.0
2016-Jun-26 12:33N 35°37' E 139°46'0 0.0
2016-Jun-26 11:33N 35°37' E 139°46'0 0.0
2016-Jun-26 10:30N 35°37' E 139°46'0 0.0
2016-Jun-26 09:33N 35°37' E 139°46'0 0.0
2016-Jun-26 08:33N 35°37' E 139°46'0 0.0
2016-Jun-26 07:33N 35°37' E 139°46'0 0.0
2016-Jun-26 06:33N 35°37' E 139°46'0 0.0
2016-Jun-26 05:33N 35°37' E 139°46'0 0.0
2016-Jun-26 04:33N 35°37' E 139°46'0 0.0
2016-Jun-26 03:33N 35°37' E 139°46'0 0.0
2016-Jun-26 02:33N 35°37' E 139°46'0 0.0
2016-Jun-26 01:33N 35°37' E 139°46'0 0.0
2016-Jun-26 00:33N 35°37' E 139°46'2 2.5
2016-Jun-25 23:34N 35°35' E 139°48'1111.0
2016-Jun-25 22:33N 35°24' E 139°46'1211.6
2016-Jun-25 21:33N 35°12' E 139°47'1010.2
2016-Jun-25 20:33N 35°02' E 139°44'1313.1
2016-Jun-25 19:33N 34°50' E 139°50'1717.3
2016-Jun-25 18:33N 34°45' E 140°10'1 1.2
2016-Jun-25 17:28N 34°44' E 140°10'2 2.6
2016-Jun-25 16:33N 34°44' E 140°08'3 2.7
2016-Jun-25 15:33N 34°43' E 140°04'2 2.4
2016-Jun-25 14:32N 34°42' E 140°02'2 2.4
2016-Jun-25 13:33N 34°41' E 139°59'2 2.2
2016-Jun-25 12:34N 34°41' E 139°56'2 2.3
2016-Jun-25 11:33N 34°40' E 139°54'2 2.2
2016-Jun-25 10:33N 34°40' E 139°51'2 1.9
2016-Jun-25 09:31N 34°39' E 139°49'2 2.0
2016-Jun-25 08:34N 34°39' E 139°46'3 1.4
2016-Jun-25 06:34N 34°41' E 139°44'3 2.5
2016-Jun-25 05:28N 34°42' E 139°41'2 2.5
2016-Jun-25 04:30N 34°44' E 139°38'1515.9
2016-Jun-25 03:34N 34°53' E 139°25'  

Dump ship's entire track history